AAL573 CYYZ-KCMH
Flight info
| Callsign | AAL573 |
|---|---|
| Flight time | 0h 50m |
| Altitude | 36000 |
| Route | MIXUT7 GNTRY DCT WWSHR CBUSS2 |
| Aircraft | A20N/M-SDE2E3FGHIRWXY/LB1 |
Departure
| Time | 2026-05-07 21:54 |
|---|---|
| Airport | Toronto Pearson International Airport (CYYZ) |
Arrival
| Time | 2026-05-07 22:45 |
|---|---|
| Airport | John Glenn Columbus International Airport (KCMH) |
| Time | Latitude | Longitude | Altitude | Speed | Heading |
|---|---|---|---|---|---|
| 2026-05-07 21:23 | 43.68593 | -79.62713 | 573 ft | 0 kts | 329° |
| 2026-05-07 21:44 | 43.68588 | -79.62709 | 574 ft | 2 kts | 329° |
| 2026-05-07 21:44 | 43.68578 | -79.62701 | 574 ft | 3 kts | 329° |
| 2026-05-07 21:44 | 43.68559 | -79.62685 | 570 ft | 3 kts | 317° |
| 2026-05-07 21:45 | 43.68546 | -79.62661 | 566 ft | 3 kts | 276° |
| 2026-05-07 21:45 | 43.68548 | -79.62630 | 572 ft | 3 kts | 248° |
| 2026-05-07 21:45 | 43.68556 | -79.62610 | 569 ft | 0 kts | 225° |
| 2026-05-07 21:49 | 43.68545 | -79.62627 | 572 ft | 5 kts | 227° |
| 2026-05-07 21:49 | 43.68537 | -79.62634 | 566 ft | 2 kts | 209° |
| 2026-05-07 21:49 | 43.68503 | -79.62649 | 567 ft | 7 kts | 207° |
| 2026-05-07 21:49 | 43.68474 | -79.62724 | 567 ft | 10 kts | 273° |
| 2026-05-07 21:50 | 43.68524 | -79.62811 | 567 ft | 13 kts | 315° |
| 2026-05-07 21:50 | 43.68593 | -79.62902 | 565 ft | 15 kts | 316° |
| 2026-05-07 21:50 | 43.68675 | -79.63008 | 565 ft | 17 kts | 317° |
| 2026-05-07 21:50 | 43.68759 | -79.63117 | 564 ft | 16 kts | 317° |
| 2026-05-07 21:51 | 43.68845 | -79.63230 | 568 ft | 17 kts | 316° |
| 2026-05-07 21:51 | 43.68932 | -79.63341 | 569 ft | 17 kts | 319° |
| 2026-05-07 21:51 | 43.69017 | -79.63454 | 566 ft | 18 kts | 316° |
| 2026-05-07 21:51 | 43.69120 | -79.63517 | 570 ft | 17 kts | 28° |
| 2026-05-07 21:52 | 43.69166 | -79.63462 | 566 ft | 5 kts | 43° |
| 2026-05-07 21:52 | 43.69208 | -79.63425 | 565 ft | 10 kts | 19° |
| 2026-05-07 21:52 | 43.69292 | -79.63419 | 566 ft | 14 kts | 1° |
| 2026-05-07 21:52 | 43.69383 | -79.63478 | 565 ft | 16 kts | 287° |
| 2026-05-07 21:53 | 43.69337 | -79.63610 | 562 ft | 15 kts | 230° |
| 2026-05-07 21:53 | 43.69172 | -79.63855 | 570 ft | 67 kts | 227° |
| 2026-05-07 21:53 | 43.68711 | -79.64528 | 572 ft | 124 kts | 226° |
| 2026-05-07 21:53 | 43.68012 | -79.65531 | 678 ft | 157 kts | 229° |
| 2026-05-07 21:54 | 43.67231 | -79.66624 | 1162 ft | 170 kts | 228° |
| 2026-05-07 21:54 | 43.66307 | -79.67921 | 1161 ft | 210 kts | 230° |
| 2026-05-07 21:54 | 43.65285 | -79.69635 | 1148 ft | 250 kts | 234° |
| 2026-05-07 21:54 | 43.64157 | -79.71664 | 1408 ft | 276 kts | 235° |
| 2026-05-07 21:55 | 43.63017 | -79.73736 | 2589 ft | 263 kts | 235° |
| 2026-05-07 21:55 | 43.61934 | -79.75690 | 3827 ft | 251 kts | 235° |
| 2026-05-07 21:55 | 43.60729 | -79.77441 | 4772 ft | 255 kts | 224° |
| 2026-05-07 21:55 | 43.59374 | -79.79038 | 5721 ft | 257 kts | 223° |
| 2026-05-07 21:56 | 43.58005 | -79.80619 | 6727 ft | 256 kts | 223° |
| 2026-05-07 21:56 | 43.56632 | -79.82205 | 7623 ft | 260 kts | 223° |
| 2026-05-07 21:56 | 43.55240 | -79.83816 | 8555 ft | 261 kts | 223° |
| 2026-05-07 21:56 | 43.53852 | -79.85427 | 9535 ft | 261 kts | 223° |
| 2026-05-07 21:57 | 43.52455 | -79.87049 | 10374 ft | 267 kts | 223° |
| 2026-05-07 21:57 | 43.50985 | -79.88766 | 10739 ft | 288 kts | 223° |
| 2026-05-07 21:57 | 43.49417 | -79.90596 | 11027 ft | 310 kts | 223° |
| 2026-05-07 21:57 | 43.47746 | -79.92537 | 11683 ft | 316 kts | 223° |
| 2026-05-07 21:58 | 43.46056 | -79.94494 | 12501 ft | 319 kts | 223° |
| 2026-05-07 21:58 | 43.44344 | -79.96475 | 13289 ft | 323 kts | 223° |
| 2026-05-07 21:58 | 43.42614 | -79.98477 | 14017 ft | 327 kts | 223° |
| 2026-05-07 21:58 | 43.40867 | -80.00498 | 14738 ft | 329 kts | 223° |
| 2026-05-07 21:59 | 43.39108 | -80.02534 | 15463 ft | 331 kts | 223° |
| 2026-05-07 21:59 | 43.37342 | -80.04574 | 16236 ft | 332 kts | 223° |
| 2026-05-07 21:59 | 43.35565 | -80.06628 | 16914 ft | 336 kts | 223° |
| 2026-05-07 21:59 | 43.33765 | -80.08706 | 17606 ft | 339 kts | 223° |
| 2026-05-07 22:00 | 43.31955 | -80.10795 | 18276 ft | 342 kts | 223° |
| 2026-05-07 22:00 | 43.30129 | -80.12899 | 18887 ft | 344 kts | 223° |
| 2026-05-07 22:00 | 43.28293 | -80.15014 | 19479 ft | 346 kts | 223° |
| 2026-05-07 22:00 | 43.26444 | -80.17142 | 20100 ft | 349 kts | 223° |
| 2026-05-07 22:01 | 43.24565 | -80.19305 | 20587 ft | 354 kts | 223° |
| 2026-05-07 22:01 | 43.22670 | -80.21482 | 21181 ft | 356 kts | 223° |
| 2026-05-07 22:01 | 43.20830 | -80.23760 | 21767 ft | 356 kts | 229° |
| 2026-05-07 22:01 | 43.19255 | -80.26339 | 22508 ft | 353 kts | 236° |
| 2026-05-07 22:02 | 43.17950 | -80.29204 | 23027 ft | 356 kts | 243° |
| 2026-05-07 22:02 | 43.16856 | -80.32253 | 23562 ft | 358 kts | 244° |
| 2026-05-07 22:02 | 43.15756 | -80.35325 | 24076 ft | 360 kts | 244° |
| 2026-05-07 22:02 | 43.14646 | -80.38399 | 24598 ft | 360 kts | 244° |
| 2026-05-07 22:03 | 43.13544 | -80.41440 | 25071 ft | 362 kts | 244° |
| 2026-05-07 22:03 | 43.12421 | -80.44531 | 25541 ft | 363 kts | 244° |
| 2026-05-07 22:03 | 43.11292 | -80.47634 | 25993 ft | 365 kts | 244° |
| 2026-05-07 22:03 | 43.10158 | -80.50749 | 26436 ft | 367 kts | 245° |
| 2026-05-07 22:04 | 43.09017 | -80.53880 | 26900 ft | 368 kts | 245° |
| 2026-05-07 22:04 | 43.07864 | -80.57039 | 27089 ft | 375 kts | 245° |
| 2026-05-07 22:04 | 43.06694 | -80.60244 | 27492 ft | 377 kts | 245° |
| 2026-05-07 22:04 | 43.05522 | -80.63450 | 27939 ft | 377 kts | 245° |
| 2026-05-07 22:05 | 43.04343 | -80.66669 | 28356 ft | 377 kts | 245° |
| 2026-05-07 22:05 | 43.03175 | -80.69855 | 28955 ft | 374 kts | 245° |
| 2026-05-07 22:05 | 43.02006 | -80.73040 | 29281 ft | 377 kts | 245° |
| 2026-05-07 22:05 | 43.00827 | -80.76253 | 29596 ft | 379 kts | 245° |
| 2026-05-07 22:06 | 42.99642 | -80.79476 | 29955 ft | 380 kts | 245° |
| 2026-05-07 22:06 | 42.98450 | -80.82713 | 30242 ft | 382 kts | 245° |
| 2026-05-07 22:06 | 42.97249 | -80.85972 | 30498 ft | 385 kts | 245° |
| 2026-05-07 22:06 | 42.96042 | -80.89243 | 30761 ft | 387 kts | 245° |
| 2026-05-07 22:07 | 42.94828 | -80.92527 | 31000 ft | 390 kts | 245° |
| 2026-05-07 22:07 | 42.93599 | -80.95851 | 31161 ft | 394 kts | 245° |
| 2026-05-07 22:07 | 42.92363 | -80.99187 | 31521 ft | 393 kts | 245° |
| 2026-05-07 22:07 | 42.91132 | -81.02505 | 31894 ft | 392 kts | 245° |
| 2026-05-07 22:08 | 42.89899 | -81.05824 | 32260 ft | 391 kts | 246° |
| 2026-05-07 22:08 | 42.88671 | -81.09128 | 32609 ft | 391 kts | 246° |
| 2026-05-07 22:08 | 42.87444 | -81.12423 | 33026 ft | 386 kts | 246° |
| 2026-05-07 22:08 | 42.86644 | -81.14568 | 33423 ft | 382 kts | 246° |
| 2026-05-07 22:09 | 42.85440 | -81.17797 | 33752 ft | 382 kts | 246° |
| 2026-05-07 22:09 | 42.83848 | -81.22068 | 34088 ft | 382 kts | 246° |
| 2026-05-07 22:09 | 42.82641 | -81.25303 | 34302 ft | 382 kts | 246° |
| 2026-05-07 22:09 | 42.81435 | -81.28531 | 34517 ft | 383 kts | 246° |
| 2026-05-07 22:10 | 42.79396 | -81.33979 | 34753 ft | 386 kts | 246° |
| 2026-05-07 22:10 | 42.78174 | -81.37234 | 34958 ft | 387 kts | 245° |
| 2026-05-07 22:10 | 42.76846 | -81.40374 | 35148 ft | 389 kts | 241° |
| 2026-05-07 22:11 | 42.75288 | -81.43401 | 35335 ft | 392 kts | 237° |
| 2026-05-07 22:11 | 42.73498 | -81.46289 | 35515 ft | 396 kts | 232° |
| 2026-05-07 22:11 | 42.71635 | -81.48980 | 35687 ft | 397 kts | 232° |
| 2026-05-07 22:11 | 42.69751 | -81.51714 | 35857 ft | 396 kts | 233° |
| 2026-05-07 22:12 | 42.66014 | -81.57149 | 35942 ft | 392 kts | 233° |
| 2026-05-07 22:12 | 42.62294 | -81.62561 | 35907 ft | 390 kts | 233° |
| 2026-05-07 22:13 | 42.60445 | -81.65243 | 35607 ft | 387 kts | 233° |
| 2026-05-07 22:13 | 42.58602 | -81.67915 | 35056 ft | 388 kts | 233° |
| 2026-05-07 22:13 | 42.56762 | -81.70582 | 34478 ft | 387 kts | 233° |
| 2026-05-07 22:13 | 42.54927 | -81.73239 | 33884 ft | 386 kts | 233° |
| 2026-05-07 22:14 | 42.53021 | -81.75816 | 33134 ft | 390 kts | 226° |
| 2026-05-07 22:14 | 42.50762 | -81.77940 | 32336 ft | 402 kts | 216° |
| 2026-05-07 22:14 | 42.48158 | -81.79464 | 31530 ft | 416 kts | 206° |
| 2026-05-07 22:14 | 42.45284 | -81.80308 | 30747 ft | 427 kts | 199° |
| 2026-05-07 22:15 | 42.42349 | -81.80956 | 30073 ft | 426 kts | 199° |
| 2026-05-07 22:15 | 42.39439 | -81.81602 | 29426 ft | 422 kts | 199° |
| 2026-05-07 22:15 | 42.36553 | -81.82249 | 28764 ft | 418 kts | 198° |
| 2026-05-07 22:15 | 42.33697 | -81.82897 | 28108 ft | 414 kts | 198° |
| 2026-05-07 22:16 | 42.30871 | -81.83538 | 27489 ft | 410 kts | 199° |
| 2026-05-07 22:16 | 42.28081 | -81.84168 | 26947 ft | 404 kts | 199° |
| 2026-05-07 22:16 | 42.25314 | -81.84800 | 26297 ft | 402 kts | 199° |
| 2026-05-07 22:16 | 42.22560 | -81.85429 | 25672 ft | 400 kts | 198° |
| 2026-05-07 22:17 | 42.19821 | -81.86056 | 25074 ft | 398 kts | 198° |
| 2026-05-07 22:17 | 42.17133 | -81.86668 | 24514 ft | 396 kts | 198° |
| 2026-05-07 22:17 | 42.14422 | -81.87284 | 23940 ft | 394 kts | 197° |
| 2026-05-07 22:17 | 42.11721 | -81.87896 | 23317 ft | 393 kts | 197° |
| 2026-05-07 22:18 | 42.09039 | -81.88494 | 22748 ft | 388 kts | 198° |
| 2026-05-07 22:18 | 42.03739 | -81.89688 | 21450 ft | 384 kts | 197° |
| 2026-05-07 22:18 | 42.01115 | -81.90281 | 20834 ft | 382 kts | 197° |
| 2026-05-07 22:19 | 41.98497 | -81.90872 | 20228 ft | 380 kts | 197° |
| 2026-05-07 22:19 | 41.95889 | -81.91459 | 19636 ft | 379 kts | 197° |
| 2026-05-07 22:19 | 41.93299 | -81.92041 | 19044 ft | 377 kts | 197° |
| 2026-05-07 22:19 | 41.90714 | -81.92621 | 18462 ft | 376 kts | 197° |
| 2026-05-07 22:20 | 41.88142 | -81.93195 | 17874 ft | 374 kts | 197° |
| 2026-05-07 22:20 | 41.85591 | -81.93766 | 17325 ft | 370 kts | 197° |
| 2026-05-07 22:20 | 41.83061 | -81.94332 | 16789 ft | 367 kts | 197° |
| 2026-05-07 22:20 | 41.80557 | -81.94892 | 16264 ft | 363 kts | 197° |
| 2026-05-07 22:21 | 41.78085 | -81.95443 | 16020 ft | 358 kts | 197° |
| 2026-05-07 22:21 | 41.75612 | -81.95999 | 15963 ft | 363 kts | 197° |
| 2026-05-07 22:21 | 41.73120 | -81.96558 | 15972 ft | 363 kts | 197° |
| 2026-05-07 22:21 | 41.70634 | -81.97113 | 15952 ft | 363 kts | 197° |
| 2026-05-07 22:22 | 41.68169 | -81.97659 | 15969 ft | 365 kts | 197° |
| 2026-05-07 22:22 | 41.65667 | -81.98214 | 15979 ft | 364 kts | 197° |
| 2026-05-07 22:22 | 41.63166 | -81.98768 | 15977 ft | 364 kts | 197° |
| 2026-05-07 22:22 | 41.60666 | -81.99322 | 15975 ft | 364 kts | 197° |
| 2026-05-07 22:23 | 41.58165 | -81.99878 | 15979 ft | 364 kts | 197° |
| 2026-05-07 22:23 | 41.55663 | -82.00433 | 15982 ft | 364 kts | 197° |
| 2026-05-07 22:23 | 41.53162 | -82.00987 | 15979 ft | 364 kts | 197° |
| 2026-05-07 22:23 | 41.50662 | -82.01540 | 15983 ft | 364 kts | 197° |
| 2026-05-07 22:24 | 41.48158 | -82.02092 | 15969 ft | 366 kts | 198° |
| 2026-05-07 22:24 | 41.45641 | -82.02649 | 15972 ft | 366 kts | 198° |
| 2026-05-07 22:24 | 41.43131 | -82.03204 | 15972 ft | 366 kts | 198° |
| 2026-05-07 22:24 | 41.40621 | -82.03760 | 15988 ft | 366 kts | 198° |
| 2026-05-07 22:25 | 41.38106 | -82.04315 | 15988 ft | 366 kts | 198° |
| 2026-05-07 22:25 | 41.35597 | -82.04875 | 15987 ft | 365 kts | 199° |
| 2026-05-07 22:25 | 41.33171 | -82.05729 | 15987 ft | 357 kts | 208° |
| 2026-05-07 22:25 | 41.30876 | -82.06924 | 15987 ft | 354 kts | 210° |
| 2026-05-07 22:26 | 41.28584 | -82.08140 | 15966 ft | 354 kts | 211° |
| 2026-05-07 22:26 | 41.26295 | -82.09343 | 15986 ft | 354 kts | 211° |
| 2026-05-07 22:26 | 41.24004 | -82.10546 | 15985 ft | 354 kts | 211° |
| 2026-05-07 22:26 | 41.21714 | -82.11746 | 15878 ft | 354 kts | 211° |
| 2026-05-07 22:27 | 41.19406 | -82.12955 | 15961 ft | 357 kts | 211° |
| 2026-05-07 22:27 | 41.17100 | -82.14160 | 15986 ft | 354 kts | 211° |
| 2026-05-07 22:27 | 41.14811 | -82.15352 | 15990 ft | 353 kts | 211° |
| 2026-05-07 22:27 | 41.12524 | -82.16546 | 15990 ft | 354 kts | 211° |
| 2026-05-07 22:28 | 41.10228 | -82.17745 | 15989 ft | 354 kts | 211° |
| 2026-05-07 22:28 | 41.07931 | -82.18942 | 15949 ft | 354 kts | 211° |
| 2026-05-07 22:28 | 41.05653 | -82.20127 | 15988 ft | 351 kts | 210° |
| 2026-05-07 22:28 | 41.03373 | -82.21314 | 15989 ft | 352 kts | 210° |
| 2026-05-07 22:29 | 41.01092 | -82.22500 | 15989 ft | 352 kts | 210° |
| 2026-05-07 22:29 | 40.98811 | -82.23685 | 15989 ft | 352 kts | 210° |
| 2026-05-07 22:29 | 40.96559 | -82.24854 | 15989 ft | 352 kts | 210° |
| 2026-05-07 22:29 | 40.94278 | -82.26038 | 15989 ft | 352 kts | 210° |
| 2026-05-07 22:30 | 40.91995 | -82.27221 | 15990 ft | 352 kts | 210° |
| 2026-05-07 22:30 | 40.89713 | -82.28402 | 15991 ft | 352 kts | 210° |
| 2026-05-07 22:30 | 40.87433 | -82.29583 | 15974 ft | 352 kts | 210° |
| 2026-05-07 22:30 | 40.85156 | -82.30762 | 15990 ft | 351 kts | 210° |
| 2026-05-07 22:31 | 40.82884 | -82.31936 | 15990 ft | 351 kts | 210° |
| 2026-05-07 22:31 | 40.80611 | -82.33109 | 15989 ft | 351 kts | 210° |
| 2026-05-07 22:31 | 40.78334 | -82.34285 | 15990 ft | 352 kts | 210° |
| 2026-05-07 22:31 | 40.76061 | -82.35456 | 15989 ft | 351 kts | 210° |
| 2026-05-07 22:32 | 40.73781 | -82.36630 | 15989 ft | 351 kts | 210° |
| 2026-05-07 22:32 | 40.71503 | -82.37804 | 15988 ft | 352 kts | 210° |
| 2026-05-07 22:32 | 40.69221 | -82.38979 | 15991 ft | 352 kts | 210° |
| 2026-05-07 22:32 | 40.66948 | -82.40147 | 15894 ft | 350 kts | 210° |
| 2026-05-07 22:33 | 40.64674 | -82.41316 | 15429 ft | 347 kts | 209° |
| 2026-05-07 22:33 | 40.62432 | -82.42465 | 14666 ft | 346 kts | 209° |
| 2026-05-07 22:33 | 40.60179 | -82.43595 | 13850 ft | 346 kts | 208° |
| 2026-05-07 22:33 | 40.57928 | -82.44711 | 13027 ft | 344 kts | 208° |
| 2026-05-07 22:34 | 40.55673 | -82.45732 | 12251 ft | 344 kts | 202° |
| 2026-05-07 22:34 | 40.53370 | -82.46552 | 11487 ft | 341 kts | 201° |
| 2026-05-07 22:34 | 40.51091 | -82.47372 | 10724 ft | 339 kts | 201° |
| 2026-05-07 22:34 | 40.48837 | -82.48186 | 10216 ft | 329 kts | 200° |
| 2026-05-07 22:35 | 40.46720 | -82.48945 | 10013 ft | 310 kts | 200° |
| 2026-05-07 22:35 | 40.44700 | -82.49667 | 9780 ft | 294 kts | 201° |
| 2026-05-07 22:35 | 40.42752 | -82.50369 | 9272 ft | 288 kts | 201° |
| 2026-05-07 22:35 | 40.40833 | -82.51066 | 8671 ft | 286 kts | 200° |
| 2026-05-07 22:36 | 40.38918 | -82.51761 | 8094 ft | 283 kts | 200° |
| 2026-05-07 22:36 | 40.37020 | -82.52448 | 7516 ft | 282 kts | 200° |
| 2026-05-07 22:36 | 40.35137 | -82.53128 | 6961 ft | 280 kts | 200° |
| 2026-05-07 22:36 | 40.33261 | -82.53803 | 6418 ft | 278 kts | 199° |
| 2026-05-07 22:37 | 40.31417 | -82.54463 | 6078 ft | 271 kts | 199° |
| 2026-05-07 22:37 | 40.29566 | -82.55125 | 5997 ft | 279 kts | 199° |
| 2026-05-07 22:37 | 40.27710 | -82.55785 | 5929 ft | 274 kts | 199° |
| 2026-05-07 22:37 | 40.25873 | -82.56436 | 5529 ft | 272 kts | 199° |
| 2026-05-07 22:38 | 40.24054 | -82.57082 | 5136 ft | 271 kts | 199° |
| 2026-05-07 22:38 | 40.22229 | -82.57732 | 5011 ft | 272 kts | 199° |
| 2026-05-07 22:38 | 40.20391 | -82.58385 | 4997 ft | 274 kts | 199° |
| 2026-05-07 22:38 | 40.18561 | -82.59032 | 4999 ft | 273 kts | 199° |
| 2026-05-07 22:39 | 40.16728 | -82.59682 | 4997 ft | 272 kts | 199° |
| 2026-05-07 22:39 | 40.14907 | -82.60326 | 4998 ft | 272 kts | 199° |
| 2026-05-07 22:39 | 40.13077 | -82.60972 | 4995 ft | 270 kts | 199° |
| 2026-05-07 22:39 | 40.11243 | -82.61572 | 4996 ft | 273 kts | 197° |
| 2026-05-07 22:40 | 40.09386 | -82.62111 | 5002 ft | 273 kts | 196° |
| 2026-05-07 22:40 | 40.07558 | -82.62626 | 4998 ft | 262 kts | 196° |
| 2026-05-07 22:40 | 40.05826 | -82.63116 | 5001 ft | 247 kts | 196° |
| 2026-05-07 22:40 | 40.04192 | -82.63585 | 5002 ft | 238 kts | 197° |
| 2026-05-07 22:41 | 40.02552 | -82.64069 | 5003 ft | 242 kts | 198° |
| 2026-05-07 22:41 | 40.01062 | -82.64921 | 5007 ft | 232 kts | 225° |
| 2026-05-07 22:41 | 40.00146 | -82.66580 | 5009 ft | 223 kts | 251° |
| 2026-05-07 22:41 | 39.99584 | -82.68399 | 5000 ft | 208 kts | 252° |
| 2026-05-07 22:42 | 39.99079 | -82.70116 | 4783 ft | 203 kts | 255° |
| 2026-05-07 22:42 | 39.98657 | -82.71874 | 4316 ft | 203 kts | 259° |
| 2026-05-07 22:42 | 39.98412 | -82.73689 | 3705 ft | 206 kts | 269° |
| 2026-05-07 22:42 | 39.98369 | -82.75497 | 3263 ft | 198 kts | 274° |
| 2026-05-07 22:43 | 39.98412 | -82.77232 | 2802 ft | 185 kts | 277° |
| 2026-05-07 22:43 | 39.98520 | -82.78850 | 2326 ft | 173 kts | 278° |
| 2026-05-07 22:43 | 39.98615 | -82.80365 | 1907 ft | 161 kts | 278° |
| 2026-05-07 22:43 | 39.98736 | -82.81775 | 1771 ft | 161 kts | 281° |
| 2026-05-07 22:44 | 39.98881 | -82.83208 | 1621 ft | 152 kts | 281° |
| 2026-05-07 22:44 | 39.99012 | -82.84511 | 1352 ft | 139 kts | 278° |
| 2026-05-07 22:44 | 39.99088 | -82.85714 | 1139 ft | 127 kts | 276° |
| 2026-05-07 22:44 | 39.99127 | -82.86877 | 932 ft | 134 kts | 278° |
| 2026-05-07 22:45 | 39.99202 | -82.88063 | 822 ft | 124 kts | 271° |
| 2026-05-07 22:45 | 39.99255 | -82.88932 | 821 ft | 67 kts | 274° |
| 2026-05-07 22:45 | 39.99284 | -82.89334 | 818 ft | 33 kts | 283° |
| 2026-05-07 22:45 | 39.99360 | -82.89605 | 824 ft | 31 kts | 304° |
| 2026-05-07 22:46 | 39.99391 | -82.89665 | 821 ft | 1 kts | 303° |
| 2026-05-07 22:46 | 39.99438 | -82.89755 | 823 ft | 15 kts | 304° |
| 2026-05-07 22:46 | 39.99488 | -82.89880 | 824 ft | 16 kts | 299° |
| 2026-05-07 22:46 | 39.99582 | -82.89895 | 820 ft | 15 kts | 46° |
| 2026-05-07 22:47 | 39.99591 | -82.89771 | 823 ft | 15 kts | 92° |
| 2026-05-07 22:47 | 39.99582 | -82.89638 | 825 ft | 15 kts | 96° |
| 2026-05-07 22:47 | 39.99575 | -82.89491 | 825 ft | 17 kts | 92° |
| 2026-05-07 22:47 | 39.99568 | -82.89321 | 825 ft | 20 kts | 93° |
| 2026-05-07 22:48 | 39.99555 | -82.89129 | 823 ft | 23 kts | 95° |
| 2026-05-07 22:48 | 39.99542 | -82.88912 | 821 ft | 25 kts | 94° |
| 2026-05-07 22:48 | 39.99527 | -82.88671 | 816 ft | 28 kts | 94° |
| 2026-05-07 22:48 | 39.99516 | -82.88415 | 819 ft | 26 kts | 94° |
| 2026-05-07 22:49 | 39.99564 | -82.88326 | 816 ft | 10 kts | 343° |
| 2026-05-07 22:49 | 39.99584 | -82.88379 | 818 ft | 7 kts | 282° |
| 2026-05-07 22:49 | 39.99588 | -82.88446 | 818 ft | 8 kts | 274° |
| 2026-05-07 22:49 | 39.99610 | -82.88516 | 813 ft | 9 kts | 297° |
| 2026-05-07 22:50 | 39.99643 | -82.88559 | 820 ft | 2 kts | 10° |
| 2026-05-07 22:50 | 39.99655 | -82.88549 | 820 ft | 1 kts | 28° |